sensor_id;sensor_type;location;lat;lon;timestamp;P1;durP1;ratioP1;P2;durP2;ratioP2
41627;SDS011;27321;50.816;6.054;2024-01-30T00:02:42;5.10;;;3.23;;
41627;SDS011;27321;50.816;6.054;2024-01-30T00:05:43;3.90;;;3.17;;
41627;SDS011;27321;50.816;6.054;2024-01-30T00:08:44;3.57;;;3.17;;
41627;SDS011;27321;50.816;6.054;2024-01-30T00:11:46;4.73;;;2.90;;
41627;SDS011;27321;50.816;6.054;2024-01-30T00:14:47;3.78;;;2.97;;
41627;SDS011;27321;50.816;6.054;2024-01-30T00:17:48;4.70;;;3.20;;
41627;SDS011;27321;50.816;6.054;2024-01-30T00:20:52;3.83;;;3.03;;
41627;SDS011;27321;50.816;6.054;2024-01-30T00:23:53;4.00;;;2.60;;
41627;SDS011;27321;50.816;6.054;2024-01-30T00:26:53;4.90;;;3.33;;
41627;SDS011;27321;50.816;6.054;2024-01-30T00:29:54;2.80;;;2.47;;
41627;SDS011;27321;50.816;6.054;2024-01-30T00:32:55;3.47;;;2.60;;
41627;SDS011;27321;50.816;6.054;2024-01-30T00:35:56;4.13;;;3.00;;
41627;SDS011;27321;50.816;6.054;2024-01-30T00:38:57;3.43;;;2.70;;
41627;SDS011;27321;50.816;6.054;2024-01-30T00:41:58;3.80;;;2.80;;
41627;SDS011;27321;50.816;6.054;2024-01-30T00:44:59;3.90;;;2.93;;
41627;SDS011;27321;50.816;6.054;2024-01-30T00:48:02;4.10;;;2.80;;
41627;SDS011;27321;50.816;6.054;2024-01-30T00:54:05;3.80;;;2.70;;
41627;SDS011;27321;50.816;6.054;2024-01-30T00:57:07;3.38;;;2.88;;
41627;SDS011;27321;50.816;6.054;2024-01-30T01:00:08;2.88;;;2.47;;
41627;SDS011;27321;50.816;6.054;2024-01-30T01:03:09;2.53;;;2.33;;
41627;SDS011;27321;50.816;6.054;2024-01-30T01:06:10;4.53;;;2.88;;
41627;SDS011;27321;50.816;6.054;2024-01-30T01:09:11;3.43;;;2.13;;
41627;SDS011;27321;50.816;6.054;2024-01-30T01:12:12;3.15;;;2.33;;
41627;SDS011;27321;50.816;6.054;2024-01-30T01:15:13;2.80;;;2.50;;
41627;SDS011;27321;50.816;6.054;2024-01-30T01:18:14;3.88;;;2.72;;
41627;SDS011;27321;50.816;6.054;2024-01-30T01:21:16;3.92;;;2.80;;
41627;SDS011;27321;50.816;6.054;2024-01-30T01:24:16;3.70;;;2.67;;
41627;SDS011;27321;50.816;6.054;2024-01-30T01:27:17;5.47;;;2.60;;
41627;SDS011;27321;50.816;6.054;2024-01-30T01:30:18;3.07;;;2.60;;
41627;SDS011;27321;50.816;6.054;2024-01-30T01:33:21;4.07;;;2.70;;
41627;SDS011;27321;50.816;6.054;2024-01-30T01:36:22;4.83;;;2.90;;
41627;SDS011;27321;50.816;6.054;2024-01-30T01:39:23;4.95;;;2.75;;
41627;SDS011;27321;50.816;6.054;2024-01-30T01:42:24;2.83;;;2.40;;
41627;SDS011;27321;50.816;6.054;2024-01-30T01:45:25;3.17;;;2.57;;
41627;SDS011;27321;50.816;6.054;2024-01-30T01:48:26;3.20;;;2.70;;
41627;SDS011;27321;50.816;6.054;2024-01-30T01:51:27;4.70;;;2.53;;
41627;SDS011;27321;50.816;6.054;2024-01-30T01:54:29;2.90;;;2.60;;
41627;SDS011;27321;50.816;6.054;2024-01-30T01:57:31;2.95;;;2.65;;
41627;SDS011;27321;50.816;6.054;2024-01-30T02:00:33;2.87;;;2.43;;
41627;SDS011;27321;50.816;6.054;2024-01-30T02:03:35;3.28;;;2.58;;
41627;SDS011;27321;50.816;6.054;2024-01-30T02:06:36;3.30;;;2.67;;
41627;SDS011;27321;50.816;6.054;2024-01-30T02:09:38;2.90;;;2.60;;
41627;SDS011;27321;50.816;6.054;2024-01-30T02:12:39;7.00;;;2.97;;
41627;SDS011;27321;50.816;6.054;2024-01-30T02:15:40;4.20;;;2.42;;
41627;SDS011;27321;50.816;6.054;2024-01-30T02:18:41;4.95;;;2.58;;
41627;SDS011;27321;50.816;6.054;2024-01-30T02:21:52;3.47;;;2.50;;
41627;SDS011;27321;50.816;6.054;2024-01-30T02:24:53;2.65;;;2.35;;
41627;SDS011;27321;50.816;6.054;2024-01-30T02:27:54;3.00;;;2.30;;
41627;SDS011;27321;50.816;6.054;2024-01-30T02:30:55;3.03;;;2.13;;
41627;SDS011;27321;50.816;6.054;2024-01-30T02:33:56;2.35;;;2.15;;
41627;SDS011;27321;50.816;6.054;2024-01-30T02:36:56;2.87;;;2.57;;
41627;SDS011;27321;50.816;6.054;2024-01-30T02:39:57;3.87;;;2.70;;
41627;SDS011;27321;50.816;6.054;2024-01-30T02:42:59;4.20;;;2.60;;
41627;SDS011;27321;50.816;6.054;2024-01-30T02:46:02;3.67;;;2.50;;
41627;SDS011;27321;50.816;6.054;2024-01-30T02:49:03;4.28;;;2.67;;
41627;SDS011;27321;50.816;6.054;2024-01-30T02:52:04;2.83;;;2.42;;
41627;SDS011;27321;50.816;6.054;2024-01-30T02:55:05;2.92;;;2.30;;
41627;SDS011;27321;50.816;6.054;2024-01-30T02:58:06;3.63;;;2.17;;
41627;SDS011;27321;50.816;6.054;2024-01-30T03:01:07;2.40;;;2.20;;
41627;SDS011;27321;50.816;6.054;2024-01-30T03:04:08;3.20;;;2.50;;
41627;SDS011;27321;50.816;6.054;2024-01-30T03:07:09;3.30;;;2.40;;
41627;SDS011;27321;50.816;6.054;2024-01-30T03:10:10;3.47;;;2.47;;
41627;SDS011;27321;50.816;6.054;2024-01-30T03:13:11;3.07;;;2.37;;
41627;SDS011;27321;50.816;6.054;2024-01-30T03:16:12;5.60;;;2.72;;
41627;SDS011;27321;50.816;6.054;2024-01-30T03:19:13;4.83;;;2.73;;
41627;SDS011;27321;50.816;6.054;2024-01-30T03:22:14;4.53;;;2.80;;
41627;SDS011;27321;50.816;6.054;2024-01-30T03:25:15;3.83;;;2.73;;
41627;SDS011;27321;50.816;6.054;2024-01-30T03:28:16;2.78;;;2.38;;
41627;SDS011;27321;50.816;6.054;2024-01-30T03:31:17;2.87;;;2.57;;
41627;SDS011;27321;50.816;6.054;2024-01-30T03:34:18;2.80;;;2.17;;
41627;SDS011;27321;50.816;6.054;2024-01-30T03:37:19;5.07;;;2.57;;
41627;SDS011;27321;50.816;6.054;2024-01-30T03:40:20;2.60;;;2.38;;
41627;SDS011;27321;50.816;6.054;2024-01-30T03:43:21;3.83;;;2.43;;
41627;SDS011;27321;50.816;6.054;2024-01-30T03:46:22;5.37;;;2.97;;
41627;SDS011;27321;50.816;6.054;2024-01-30T03:49:22;3.87;;;2.37;;
41627;SDS011;27321;50.816;6.054;2024-01-30T03:52:23;4.27;;;2.40;;
41627;SDS011;27321;50.816;6.054;2024-01-30T03:55:24;3.53;;;2.30;;
41627;SDS011;27321;50.816;6.054;2024-01-30T03:58:25;2.67;;;2.37;;
41627;SDS011;27321;50.816;6.054;2024-01-30T04:01:26;2.77;;;2.50;;
41627;SDS011;27321;50.816;6.054;2024-01-30T04:04:27;3.60;;;2.63;;
41627;SDS011;27321;50.816;6.054;2024-01-30T04:07:28;4.03;;;2.20;;
41627;SDS011;27321;50.816;6.054;2024-01-30T04:10:29;3.92;;;2.42;;
41627;SDS011;27321;50.816;6.054;2024-01-30T04:13:30;3.33;;;2.63;;
41627;SDS011;27321;50.816;6.054;2024-01-30T04:16:31;3.53;;;2.67;;
41627;SDS011;27321;50.816;6.054;2024-01-30T04:19:32;3.60;;;2.75;;
41627;SDS011;27321;50.816;6.054;2024-01-30T04:22:33;5.60;;;2.90;;
41627;SDS011;27321;50.816;6.054;2024-01-30T04:25:34;4.80;;;2.70;;
41627;SDS011;27321;50.816;6.054;2024-01-30T04:28:35;3.67;;;2.80;;
41627;SDS011;27321;50.816;6.054;2024-01-30T04:31:36;4.27;;;3.07;;
41627;SDS011;27321;50.816;6.054;2024-01-30T04:34:37;3.42;;;2.60;;
41627;SDS011;27321;50.816;6.054;2024-01-30T04:37:38;3.50;;;2.70;;
41627;SDS011;27321;50.816;6.054;2024-01-30T04:40:39;2.60;;;2.40;;
41627;SDS011;27321;50.816;6.054;2024-01-30T04:43:40;3.67;;;2.88;;
41627;SDS011;27321;50.816;6.054;2024-01-30T04:46:41;3.40;;;2.83;;
41627;SDS011;27321;50.816;6.054;2024-01-30T04:49:42;4.38;;;2.90;;
41627;SDS011;27321;50.816;6.054;2024-01-30T04:52:43;3.80;;;2.87;;
41627;SDS011;27321;50.816;6.054;2024-01-30T04:55:44;3.43;;;2.60;;
41627;SDS011;27321;50.816;6.054;2024-01-30T04:58:45;2.97;;;2.50;;
41627;SDS011;27321;50.816;6.054;2024-01-30T05:01:46;3.20;;;2.60;;
41627;SDS011;27321;50.816;6.054;2024-01-30T05:04:47;3.70;;;2.50;;
41627;SDS011;27321;50.816;6.054;2024-01-30T05:07:48;4.10;;;2.73;;
41627;SDS011;27321;50.816;6.054;2024-01-30T05:10:49;3.15;;;2.50;;
41627;SDS011;27321;50.816;6.054;2024-01-30T05:13:50;6.43;;;2.90;;
41627;SDS011;27321;50.816;6.054;2024-01-30T05:16:51;3.50;;;2.80;;
41627;SDS011;27321;50.816;6.054;2024-01-30T05:19:52;2.73;;;2.47;;
41627;SDS011;27321;50.816;6.054;2024-01-30T05:22:52;3.40;;;2.97;;
41627;SDS011;27321;50.816;6.054;2024-01-30T05:25:54;3.28;;;2.90;;
41627;SDS011;27321;50.816;6.054;2024-01-30T05:28:54;4.20;;;2.70;;
41627;SDS011;27321;50.816;6.054;2024-01-30T05:31:57;3.47;;;2.57;;
41627;SDS011;27321;50.816;6.054;2024-01-30T05:34:58;4.97;;;2.53;;
41627;SDS011;27321;50.816;6.054;2024-01-30T05:37:59;3.83;;;2.60;;
41627;SDS011;27321;50.816;6.054;2024-01-30T05:40:59;3.47;;;2.70;;
41627;SDS011;27321;50.816;6.054;2024-01-30T05:44:02;4.70;;;2.70;;
41627;SDS011;27321;50.816;6.054;2024-01-30T05:47:03;3.00;;;2.38;;
41627;SDS011;27321;50.816;6.054;2024-01-30T05:50:05;3.05;;;2.45;;
41627;SDS011;27321;50.816;6.054;2024-01-30T05:53:07;2.63;;;2.33;;
41627;SDS011;27321;50.816;6.054;2024-01-30T05:56:07;2.27;;;2.07;;
41627;SDS011;27321;50.816;6.054;2024-01-30T05:59:08;2.88;;;2.42;;
41627;SDS011;27321;50.816;6.054;2024-01-30T06:02:10;4.18;;;2.47;;
41627;SDS011;27321;50.816;6.054;2024-01-30T06:08:13;2.70;;;2.30;;
41627;SDS011;27321;50.816;6.054;2024-01-30T06:11:14;3.15;;;2.80;;
41627;SDS011;27321;50.816;6.054;2024-01-30T06:14:15;2.97;;;2.67;;
41627;SDS011;27321;50.816;6.054;2024-01-30T06:17:16;3.17;;;2.47;;
41627;SDS011;27321;50.816;6.054;2024-01-30T06:20:17;4.83;;;2.47;;
41627;SDS011;27321;50.816;6.054;2024-01-30T06:23:18;6.15;;;2.90;;
41627;SDS011;27321;50.816;6.054;2024-01-30T06:26:19;3.37;;;2.60;;
41627;SDS011;27321;50.816;6.054;2024-01-30T06:29:20;4.27;;;3.17;;
41627;SDS011;27321;50.816;6.054;2024-01-30T06:32:21;3.40;;;2.78;;
41627;SDS011;27321;50.816;6.054;2024-01-30T06:35:22;4.87;;;2.93;;
41627;SDS011;27321;50.816;6.054;2024-01-30T06:38:23;3.63;;;2.57;;
41627;SDS011;27321;50.816;6.054;2024-01-30T06:41:24;3.78;;;2.78;;
41627;SDS011;27321;50.816;6.054;2024-01-30T06:44:25;3.80;;;2.67;;
41627;SDS011;27321;50.816;6.054;2024-01-30T06:47:26;3.33;;;2.70;;
41627;SDS011;27321;50.816;6.054;2024-01-30T06:50:27;3.50;;;2.60;;
41627;SDS011;27321;50.816;6.054;2024-01-30T06:53:28;3.77;;;2.70;;
41627;SDS011;27321;50.816;6.054;2024-01-30T06:56:29;3.10;;;2.38;;
41627;SDS011;27321;50.816;6.054;2024-01-30T06:59:31;4.30;;;2.67;;
41627;SDS011;27321;50.816;6.054;2024-01-30T07:05:32;4.63;;;2.53;;
41627;SDS011;27321;50.816;6.054;2024-01-30T07:08:34;3.78;;;2.50;;
41627;SDS011;27321;50.816;6.054;2024-01-30T07:11:35;4.10;;;3.00;;
41627;SDS011;27321;50.816;6.054;2024-01-30T07:14:36;3.55;;;2.55;;
41627;SDS011;27321;50.816;6.054;2024-01-30T07:17:37;4.43;;;2.95;;
41627;SDS011;27321;50.816;6.054;2024-01-30T07:20:39;5.10;;;3.00;;
41627;SDS011;27321;50.816;6.054;2024-01-30T07:23:46;4.53;;;3.10;;
41627;SDS011;27321;50.816;6.054;2024-01-30T07:26:47;3.67;;;2.93;;
41627;SDS011;27321;50.816;6.054;2024-01-30T07:29:48;4.90;;;3.03;;
41627;SDS011;27321;50.816;6.054;2024-01-30T07:32:49;3.60;;;2.90;;
41627;SDS011;27321;50.816;6.054;2024-01-30T07:35:51;4.27;;;3.13;;
41627;SDS011;27321;50.816;6.054;2024-01-30T07:38:53;5.17;;;3.10;;
41627;SDS011;27321;50.816;6.054;2024-01-30T07:41:55;4.18;;;2.83;;
41627;SDS011;27321;50.816;6.054;2024-01-30T07:44:55;5.47;;;2.80;;
41627;SDS011;27321;50.816;6.054;2024-01-30T07:47:56;3.65;;;3.15;;
41627;SDS011;27321;50.816;6.054;2024-01-30T07:50:57;5.00;;;3.33;;
41627;SDS011;27321;50.816;6.054;2024-01-30T07:53:58;3.92;;;3.20;;
41627;SDS011;27321;50.816;6.054;2024-01-30T07:57:00;5.93;;;3.40;;
41627;SDS011;27321;50.816;6.054;2024-01-30T08:00:02;4.33;;;3.20;;
41627;SDS011;27321;50.816;6.054;2024-01-30T08:03:07;4.37;;;3.13;;
41627;SDS011;27321;50.816;6.054;2024-01-30T08:06:09;8.30;;;3.80;;
41627;SDS011;27321;50.816;6.054;2024-01-30T08:09:10;4.67;;;3.07;;
41627;SDS011;27321;50.816;6.054;2024-01-30T08:12:11;4.78;;;3.47;;
41627;SDS011;27321;50.816;6.054;2024-01-30T08:15:13;5.70;;;3.88;;
41627;SDS011;27321;50.816;6.054;2024-01-30T08:18:14;4.78;;;3.60;;
41627;SDS011;27321;50.816;6.054;2024-01-30T08:21:15;7.97;;;3.60;;
41627;SDS011;27321;50.816;6.054;2024-01-30T08:24:15;4.20;;;3.28;;
41627;SDS011;27321;50.816;6.054;2024-01-30T08:27:16;4.22;;;3.47;;
41627;SDS011;27321;50.816;6.054;2024-01-30T08:30:17;4.32;;;3.40;;
41627;SDS011;27321;50.816;6.054;2024-01-30T08:33:19;4.35;;;3.28;;
41627;SDS011;27321;50.816;6.054;2024-01-30T08:36:20;7.77;;;3.67;;
41627;SDS011;27321;50.816;6.054;2024-01-30T08:39:21;4.78;;;3.20;;
41627;SDS011;27321;50.816;6.054;2024-01-30T08:42:22;3.70;;;3.17;;
41627;SDS011;27321;50.816;6.054;2024-01-30T08:45:23;4.87;;;3.30;;
41627;SDS011;27321;50.816;6.054;2024-01-30T08:48:24;4.05;;;3.17;;
41627;SDS011;27321;50.816;6.054;2024-01-30T08:51:25;6.15;;;3.85;;
41627;SDS011;27321;50.816;6.054;2024-01-30T08:54:26;5.35;;;3.15;;
41627;SDS011;27321;50.816;6.054;2024-01-30T08:57:27;4.57;;;3.50;;
41627;SDS011;27321;50.816;6.054;2024-01-30T09:00:28;4.72;;;3.53;;
41627;SDS011;27321;50.816;6.054;2024-01-30T09:03:29;3.50;;;2.90;;
41627;SDS011;27321;50.816;6.054;2024-01-30T09:06:30;5.70;;;3.78;;
41627;SDS011;27321;50.816;6.054;2024-01-30T09:09:31;4.65;;;3.63;;
41627;SDS011;27321;50.816;6.054;2024-01-30T09:12:34;5.00;;;3.80;;
41627;SDS011;27321;50.816;6.054;2024-01-30T09:15:35;7.03;;;4.20;;
41627;SDS011;27321;50.816;6.054;2024-01-30T09:18:36;5.90;;;3.92;;
41627;SDS011;27321;50.816;6.054;2024-01-30T09:21:37;6.13;;;4.33;;
41627;SDS011;27321;50.816;6.054;2024-01-30T09:24:38;5.20;;;3.33;;
41627;SDS011;27321;50.816;6.054;2024-01-30T09:27:39;5.30;;;3.80;;
41627;SDS011;27321;50.816;6.054;2024-01-30T09:30:40;7.05;;;4.13;;
41627;SDS011;27321;50.816;6.054;2024-01-30T09:33:41;9.17;;;4.20;;
41627;SDS011;27321;50.816;6.054;2024-01-30T09:36:44;5.75;;;3.63;;
41627;SDS011;27321;50.816;6.054;2024-01-30T09:39:45;6.47;;;3.43;;
41627;SDS011;27321;50.816;6.054;2024-01-30T09:42:49;5.23;;;3.83;;
41627;SDS011;27321;50.816;6.054;2024-01-30T09:45:51;5.25;;;3.22;;
41627;SDS011;27321;50.816;6.054;2024-01-30T09:48:55;6.73;;;3.13;;
41627;SDS011;27321;50.816;6.054;2024-01-30T09:51:57;7.10;;;3.37;;
41627;SDS011;27321;50.816;6.054;2024-01-30T09:54:59;6.07;;;3.60;;
41627;SDS011;27321;50.816;6.054;2024-01-30T09:58:02;6.30;;;3.50;;
41627;SDS011;27321;50.816;6.054;2024-01-30T10:01:03;6.15;;;3.35;;
41627;SDS011;27321;50.816;6.054;2024-01-30T10:04:04;7.72;;;4.32;;
41627;SDS011;27321;50.816;6.054;2024-01-30T10:07:06;5.50;;;3.80;;
41627;SDS011;27321;50.816;6.054;2024-01-30T10:10:08;6.95;;;4.88;;
41627;SDS011;27321;50.816;6.054;2024-01-30T10:13:08;9.32;;;4.70;;
41627;SDS011;27321;50.816;6.054;2024-01-30T10:16:13;6.97;;;3.67;;
41627;SDS011;27321;50.816;6.054;2024-01-30T10:19:15;6.47;;;3.67;;
41627;SDS011;27321;50.816;6.054;2024-01-30T10:22:16;4.32;;;3.25;;
41627;SDS011;27321;50.816;6.054;2024-01-30T10:25:18;5.78;;;4.13;;
41627;SDS011;27321;50.816;6.054;2024-01-30T10:31:22;5.60;;;3.58;;
41627;SDS011;27321;50.816;6.054;2024-01-30T10:34:23;5.78;;;3.83;;
41627;SDS011;27321;50.816;6.054;2024-01-30T10:37:24;4.83;;;3.70;;
41627;SDS011;27321;50.816;6.054;2024-01-30T10:40:27;5.55;;;4.10;;
41627;SDS011;27321;50.816;6.054;2024-01-30T10:43:35;5.50;;;4.00;;
41627;SDS011;27321;50.816;6.054;2024-01-30T10:46:41;6.13;;;3.75;;
41627;SDS011;27321;50.816;6.054;2024-01-30T10:49:45;8.57;;;4.13;;
41627;SDS011;27321;50.816;6.054;2024-01-30T10:52:47;7.53;;;4.43;;
41627;SDS011;27321;50.816;6.054;2024-01-30T10:55:50;6.13;;;4.00;;
41627;SDS011;27321;50.816;6.054;2024-01-30T10:58:53;6.15;;;3.92;;
41627;SDS011;27321;50.816;6.054;2024-01-30T11:01:55;8.73;;;4.13;;
41627;SDS011;27321;50.816;6.054;2024-01-30T11:04:58;8.27;;;3.80;;
41627;SDS011;27321;50.816;6.054;2024-01-30T11:08:12;5.63;;;3.63;;
41627;SDS011;27321;50.816;6.054;2024-01-30T11:11:14;8.68;;;4.10;;
41627;SDS011;27321;50.816;6.054;2024-01-30T11:14:22;5.00;;;3.70;;
41627;SDS011;27321;50.816;6.054;2024-01-30T11:17:28;6.20;;;4.40;;
41627;SDS011;27321;50.816;6.054;2024-01-30T11:20:30;7.30;;;4.22;;
41627;SDS011;27321;50.816;6.054;2024-01-30T11:23:33;6.85;;;3.90;;
41627;SDS011;27321;50.816;6.054;2024-01-30T11:26:35;7.70;;;3.88;;
41627;SDS011;27321;50.816;6.054;2024-01-30T11:29:36;5.73;;;3.77;;
41627;SDS011;27321;50.816;6.054;2024-01-30T11:32:37;3.92;;;3.13;;
41627;SDS011;27321;50.816;6.054;2024-01-30T11:38:40;8.63;;;4.63;;
41627;SDS011;27321;50.816;6.054;2024-01-30T11:41:44;6.95;;;4.22;;
41627;SDS011;27321;50.816;6.054;2024-01-30T11:44:47;7.18;;;4.38;;
41627;SDS011;27321;50.816;6.054;2024-01-30T11:47:48;4.97;;;3.80;;
41627;SDS011;27321;50.816;6.054;2024-01-30T11:50:49;11.07;;;5.18;;
41627;SDS011;27321;50.816;6.054;2024-01-30T11:53:51;7.00;;;4.53;;
41627;SDS011;27321;50.816;6.054;2024-01-30T11:56:52;6.65;;;4.63;;
41627;SDS011;27321;50.816;6.054;2024-01-30T11:59:53;7.03;;;4.47;;
41627;SDS011;27321;50.816;6.054;2024-01-30T12:02:55;7.30;;;4.73;;
41627;SDS011;27321;50.816;6.054;2024-01-30T12:05:56;6.28;;;4.45;;
41627;SDS011;27321;50.816;6.054;2024-01-30T12:09:02;5.90;;;4.00;;
41627;SDS011;27321;50.816;6.054;2024-01-30T12:12:10;5.03;;;3.97;;
41627;SDS011;27321;50.816;6.054;2024-01-30T12:18:13;7.60;;;4.13;;
41627;SDS011;27321;50.816;6.054;2024-01-30T12:24:19;5.57;;;4.20;;
41627;SDS011;27321;50.816;6.054;2024-01-30T12:27:20;10.32;;;5.07;;
41627;SDS011;27321;50.816;6.054;2024-01-30T12:30:21;5.43;;;4.50;;
41627;SDS011;27321;50.816;6.054;2024-01-30T12:36:26;6.90;;;4.30;;
41627;SDS011;27321;50.816;6.054;2024-01-30T12:39:30;7.70;;;5.10;;
41627;SDS011;27321;50.816;6.054;2024-01-30T12:42:31;5.97;;;4.22;;
41627;SDS011;27321;50.816;6.054;2024-01-30T12:45:32;5.63;;;4.45;;
41627;SDS011;27321;50.816;6.054;2024-01-30T12:48:33;6.93;;;4.82;;
41627;SDS011;27321;50.816;6.054;2024-01-30T12:51:34;11.13;;;5.13;;
41627;SDS011;27321;50.816;6.054;2024-01-30T12:54:36;8.40;;;5.22;;
41627;SDS011;27321;50.816;6.054;2024-01-30T12:57:36;7.35;;;4.90;;
41627;SDS011;27321;50.816;6.054;2024-01-30T13:00:39;9.43;;;4.88;;
41627;SDS011;27321;50.816;6.054;2024-01-30T13:03:40;7.10;;;5.00;;
41627;SDS011;27321;50.816;6.054;2024-01-30T13:06:41;6.77;;;4.17;;
41627;SDS011;27321;50.816;6.054;2024-01-30T13:09:42;7.30;;;5.22;;
41627;SDS011;27321;50.816;6.054;2024-01-30T13:12:47;5.70;;;4.72;;
41627;SDS011;27321;50.816;6.054;2024-01-30T13:15:48;6.38;;;4.63;;
41627;SDS011;27321;50.816;6.054;2024-01-30T13:18:52;8.30;;;4.80;;
41627;SDS011;27321;50.816;6.054;2024-01-30T13:21:55;7.20;;;4.37;;
41627;SDS011;27321;50.816;6.054;2024-01-30T13:24:56;8.63;;;4.43;;
41627;SDS011;27321;50.816;6.054;2024-01-30T13:27:56;4.90;;;4.18;;
41627;SDS011;27321;50.816;6.054;2024-01-30T13:30:57;6.20;;;4.07;;
41627;SDS011;27321;50.816;6.054;2024-01-30T13:33:58;4.47;;;3.93;;
41627;SDS011;27321;50.816;6.054;2024-01-30T13:36:59;8.30;;;4.03;;
41627;SDS011;27321;50.816;6.054;2024-01-30T13:40:05;9.53;;;4.70;;
41627;SDS011;27321;50.816;6.054;2024-01-30T13:43:10;5.70;;;4.60;;
41627;SDS011;27321;50.816;6.054;2024-01-30T13:46:12;8.15;;;5.13;;
41627;SDS011;27321;50.816;6.054;2024-01-30T13:49:13;7.68;;;4.60;;
41627;SDS011;27321;50.816;6.054;2024-01-30T13:52:14;5.32;;;4.32;;
41627;SDS011;27321;50.816;6.054;2024-01-30T13:55:15;7.80;;;5.10;;
41627;SDS011;27321;50.816;6.054;2024-01-30T13:58:16;9.13;;;5.13;;
41627;SDS011;27321;50.816;6.054;2024-01-30T14:01:17;7.55;;;4.95;;
41627;SDS011;27321;50.816;6.054;2024-01-30T14:04:19;6.40;;;4.72;;
41627;SDS011;27321;50.816;6.054;2024-01-30T14:07:20;7.20;;;4.30;;
41627;SDS011;27321;50.816;6.054;2024-01-30T14:10:21;7.20;;;4.90;;
41627;SDS011;27321;50.816;6.054;2024-01-30T14:13:22;7.85;;;4.78;;
41627;SDS011;27321;50.816;6.054;2024-01-30T14:19:25;9.40;;;4.90;;
41627;SDS011;27321;50.816;6.054;2024-01-30T14:22:26;6.87;;;5.10;;
41627;SDS011;27321;50.816;6.054;2024-01-30T14:25:27;8.47;;;4.93;;
41627;SDS011;27321;50.816;6.054;2024-01-30T14:28:28;6.60;;;4.90;;
41627;SDS011;27321;50.816;6.054;2024-01-30T14:31:29;7.35;;;5.20;;
41627;SDS011;27321;50.816;6.054;2024-01-30T14:34:29;10.97;;;6.13;;
41627;SDS011;27321;50.816;6.054;2024-01-30T14:37:30;9.82;;;4.88;;
41627;SDS011;27321;50.816;6.054;2024-01-30T14:40:31;8.57;;;4.70;;
41627;SDS011;27321;50.816;6.054;2024-01-30T14:43:32;7.83;;;4.53;;
41627;SDS011;27321;50.816;6.054;2024-01-30T14:46:33;6.55;;;4.40;;
41627;SDS011;27321;50.816;6.054;2024-01-30T14:49:34;10.73;;;4.23;;
41627;SDS011;27321;50.816;6.054;2024-01-30T14:52:35;8.33;;;3.23;;
41627;SDS011;27321;50.816;6.054;2024-01-30T14:55:37;3.83;;;3.23;;
41627;SDS011;27321;50.816;6.054;2024-01-30T14:58:38;7.07;;;3.50;;
41627;SDS011;27321;50.816;6.054;2024-01-30T15:01:39;6.00;;;3.07;;
41627;SDS011;27321;50.816;6.054;2024-01-30T15:04:40;5.13;;;2.50;;
41627;SDS011;27321;50.816;6.054;2024-01-30T15:07:41;6.30;;;2.90;;
41627;SDS011;27321;50.816;6.054;2024-01-30T15:10:42;4.05;;;2.50;;
41627;SDS011;27321;50.816;6.054;2024-01-30T15:13:43;5.35;;;2.47;;
41627;SDS011;27321;50.816;6.054;2024-01-30T15:16:44;4.03;;;2.43;;
41627;SDS011;27321;50.816;6.054;2024-01-30T15:19:45;4.18;;;2.38;;
41627;SDS011;27321;50.816;6.054;2024-01-30T15:22:46;4.68;;;2.28;;
41627;SDS011;27321;50.816;6.054;2024-01-30T15:25:47;2.92;;;1.90;;
41627;SDS011;27321;50.816;6.054;2024-01-30T15:28:48;4.70;;;2.00;;
41627;SDS011;27321;50.816;6.054;2024-01-30T15:31:49;3.10;;;1.80;;
41627;SDS011;27321;50.816;6.054;2024-01-30T15:34:50;5.30;;;2.43;;
41627;SDS011;27321;50.816;6.054;2024-01-30T15:37:51;5.15;;;2.10;;
41627;SDS011;27321;50.816;6.054;2024-01-30T15:40:52;3.33;;;1.70;;
41627;SDS011;27321;50.816;6.054;2024-01-30T15:43:53;4.03;;;2.10;;
41627;SDS011;27321;50.816;6.054;2024-01-30T15:46:54;4.27;;;1.73;;
41627;SDS011;27321;50.816;6.054;2024-01-30T15:49:55;6.10;;;1.67;;
41627;SDS011;27321;50.816;6.054;2024-01-30T15:52:56;2.37;;;1.60;;
41627;SDS011;27321;50.816;6.054;2024-01-30T15:55:57;2.40;;;1.47;;
41627;SDS011;27321;50.816;6.054;2024-01-30T15:58:58;4.22;;;1.90;;
41627;SDS011;27321;50.816;6.054;2024-01-30T16:01:59;1.73;;;1.30;;
41627;SDS011;27321;50.816;6.054;2024-01-30T16:05:00;1.77;;;1.07;;
41627;SDS011;27321;50.816;6.054;2024-01-30T16:08:05;2.63;;;1.40;;
41627;SDS011;27321;50.816;6.054;2024-01-30T16:11:09;2.40;;;1.67;;
41627;SDS011;27321;50.816;6.054;2024-01-30T16:14:10;3.00;;;1.52;;
41627;SDS011;27321;50.816;6.054;2024-01-30T16:17:11;2.08;;;1.30;;
41627;SDS011;27321;50.816;6.054;2024-01-30T16:20:17;2.23;;;1.17;;
41627;SDS011;27321;50.816;6.054;2024-01-30T16:23:37;2.17;;;1.40;;
41627;SDS011;27321;50.816;6.054;2024-01-30T16:26:57;3.40;;;1.30;;
41627;SDS011;27321;50.816;6.054;2024-01-30T16:29:59;1.50;;;1.20;;
41627;SDS011;27321;50.816;6.054;2024-01-30T16:33:02;2.73;;;1.60;;
41627;SDS011;27321;50.816;6.054;2024-01-30T16:36:07;1.43;;;1.27;;
41627;SDS011;27321;50.816;6.054;2024-01-30T16:39:10;2.13;;;1.38;;
41627;SDS011;27321;50.816;6.054;2024-01-30T16:42:11;4.57;;;1.40;;
41627;SDS011;27321;50.816;6.054;2024-01-30T16:45:12;2.22;;;1.20;;
41627;SDS011;27321;50.816;6.054;2024-01-30T16:48:13;2.28;;;1.25;;
41627;SDS011;27321;50.816;6.054;2024-01-30T16:51:17;1.80;;;1.17;;
41627;SDS011;27321;50.816;6.054;2024-01-30T16:54:18;1.33;;;0.90;;
41627;SDS011;27321;50.816;6.054;2024-01-30T16:57:19;2.20;;;1.20;;
41627;SDS011;27321;50.816;6.054;2024-01-30T17:00:20;4.07;;;1.13;;
41627;SDS011;27321;50.816;6.054;2024-01-30T17:03:39;0.97;;;0.70;;
41627;SDS011;27321;50.816;6.054;2024-01-30T17:07:00;2.80;;;0.93;;
41627;SDS011;27321;50.816;6.054;2024-01-30T17:10:23;2.97;;;1.03;;
41627;SDS011;27321;50.816;6.054;2024-01-30T17:13:43;5.10;;;1.03;;
41627;SDS011;27321;50.816;6.054;2024-01-30T17:17:05;2.90;;;1.03;;
41627;SDS011;27321;50.816;6.054;2024-01-30T17:20:25;2.00;;;0.83;;
41627;SDS011;27321;50.816;6.054;2024-01-30T17:23:45;1.73;;;1.00;;
41627;SDS011;27321;50.816;6.054;2024-01-30T17:27:05;5.90;;;1.40;;
41627;SDS011;27321;50.816;6.054;2024-01-30T17:30:25;1.93;;;0.87;;
41627;SDS011;27321;50.816;6.054;2024-01-30T17:33:44;2.87;;;0.73;;
41627;SDS011;27321;50.816;6.054;2024-01-30T17:37:04;1.50;;;0.83;;
41627;SDS011;27321;50.816;6.054;2024-01-30T17:40:23;2.67;;;1.20;;
41627;SDS011;27321;50.816;6.054;2024-01-30T17:43:43;2.07;;;1.10;;
41627;SDS011;27321;50.816;6.054;2024-01-30T17:47:06;3.17;;;1.20;;
41627;SDS011;27321;50.816;6.054;2024-01-30T17:50:25;2.33;;;0.83;;
41627;SDS011;27321;50.816;6.054;2024-01-30T17:53:26;1.43;;;1.07;;
41627;SDS011;27321;50.816;6.054;2024-01-30T17:56:27;1.67;;;1.23;;
41627;SDS011;27321;50.816;6.054;2024-01-30T17:59:28;3.83;;;1.00;;
41627;SDS011;27321;50.816;6.054;2024-01-30T18:02:29;2.07;;;1.10;;
41627;SDS011;27321;50.816;6.054;2024-01-30T18:05:30;3.00;;;1.07;;
41627;SDS011;27321;50.816;6.054;2024-01-30T18:08:31;2.38;;;0.88;;
41627;SDS011;27321;50.816;6.054;2024-01-30T18:11:33;2.70;;;1.15;;
41627;SDS011;27321;50.816;6.054;2024-01-30T18:14:34;2.13;;;0.77;;
41627;SDS011;27321;50.816;6.054;2024-01-30T18:17:35;2.73;;;0.97;;
41627;SDS011;27321;50.816;6.054;2024-01-30T18:20:35;4.10;;;0.90;;
41627;SDS011;27321;50.816;6.054;2024-01-30T18:23:36;2.05;;;0.95;;
41627;SDS011;27321;50.816;6.054;2024-01-30T18:26:37;1.47;;;0.57;;
41627;SDS011;27321;50.816;6.054;2024-01-30T18:29:38;2.73;;;0.70;;
41627;SDS011;27321;50.816;6.054;2024-01-30T18:32:39;1.13;;;0.60;;
41627;SDS011;27321;50.816;6.054;2024-01-30T18:35:40;2.30;;;0.77;;
41627;SDS011;27321;50.816;6.054;2024-01-30T18:38:41;2.27;;;0.80;;
41627;SDS011;27321;50.816;6.054;2024-01-30T18:41:42;1.07;;;0.67;;
41627;SDS011;27321;50.816;6.054;2024-01-30T18:44:43;2.37;;;0.57;;
41627;SDS011;27321;50.816;6.054;2024-01-30T18:47:44;3.47;;;1.02;;